createdAt,value
2022-07-28T00:00:38.877Z,7.37
2022-07-28T00:03:20.856Z,3.70
2022-07-28T00:06:22.590Z,3.57
2022-07-28T00:09:04.494Z,2.97
2022-07-28T00:11:54.793Z,5.63
2022-07-28T00:14:37.016Z,3.33
2022-07-28T00:17:39.033Z,7.30
2022-07-28T00:20:21.464Z,3.07
2022-07-28T00:23:03.477Z,3.83
2022-07-28T00:25:45.925Z,8.87
2022-07-28T00:28:48.243Z,2.37
2022-07-28T00:31:30.278Z,4.43
2022-07-28T00:34:12.643Z,6.53
2022-07-28T00:36:54.786Z,3.33
2022-07-28T00:39:56.877Z,6.30
2022-07-28T00:42:38.722Z,4.30
2022-07-28T00:45:20.511Z,6.17
2022-07-28T00:48:02.457Z,3.87
2022-07-28T00:51:04.382Z,2.80
2022-07-28T00:53:47.005Z,3.40
2022-07-28T00:56:28.822Z,6.00
2022-07-28T00:59:10.763Z,5.17
2022-07-28T01:02:12.602Z,2.90
2022-07-28T01:04:54.764Z,2.30
2022-07-28T01:07:55.063Z,3.70
2022-07-28T01:10:46.676Z,5.47
2022-07-28T01:13:59.368Z,5.23
2022-07-28T01:16:52.976Z,2.60
2022-07-28T01:19:50.526Z,4.07
2022-07-28T01:22:37.296Z,9.90
2022-07-28T01:25:53.955Z,4.73
2022-07-28T01:28:56.770Z,4.10
2022-07-28T01:31:44.230Z,12.10
2022-07-28T01:35:06.576Z,6.57
2022-07-28T01:37:54.792Z,5.27
2022-07-28T01:40:39.371Z,4.03
2022-07-28T01:43:42.659Z,6.00
2022-07-28T01:46:26.122Z,2.77
2022-07-28T01:49:09.929Z,4.27
2022-07-28T01:51:53.168Z,4.13
2022-07-28T01:54:55.868Z,3.33
2022-07-28T01:57:38.487Z,3.40
2022-07-28T02:00:20.592Z,4.23
2022-07-28T02:03:07.076Z,6.43
2022-07-28T02:06:09.338Z,2.13
2022-07-28T02:08:52.927Z,4.83
2022-07-28T02:11:42.389Z,9.30
2022-07-28T02:14:26.742Z,4.30
2022-07-28T02:17:30.603Z,8.03
2022-07-28T02:20:14.517Z,8.67
2022-07-28T02:22:57.614Z,4.93
2022-07-28T02:25:40.868Z,5.27
2022-07-28T02:28:43.643Z,6.67
2022-07-28T02:31:33.492Z,9.00
2022-07-28T02:34:16.816Z,5.57
2022-07-28T02:37:02.288Z,3.60
2022-07-28T02:40:09.934Z,2.93
2022-07-28T02:42:53.222Z,5.10
2022-07-28T02:45:38.418Z,3.00
2022-07-28T02:48:26.335Z,4.00
2022-07-28T02:51:29.245Z,3.93
2022-07-28T02:54:12.353Z,8.20
2022-07-28T02:56:56.413Z,6.53
2022-07-28T02:59:39.740Z,6.53
2022-07-28T03:02:46.669Z,7.30
2022-07-28T03:05:28.987Z,4.03
2022-07-28T03:08:11.255Z,6.97
2022-07-28T03:11:09.510Z,5.53
2022-07-28T03:14:11.490Z,10.63
2022-07-28T03:16:55.655Z,5.40
2022-07-28T03:19:38.214Z,6.37
2022-07-28T03:22:20.035Z,4.13
2022-07-28T03:25:29.919Z,5.30
2022-07-28T03:28:17.851Z,7.30
2022-07-28T03:31:05.719Z,4.80
2022-07-28T03:33:48.678Z,9.80
2022-07-28T03:36:54.117Z,6.37
2022-07-28T03:39:40.847Z,7.50
2022-07-28T03:42:24.232Z,4.67
2022-07-28T03:45:06.992Z,10.63
2022-07-28T03:48:15.019Z,4.43
2022-07-28T03:50:57.193Z,7.30
2022-07-28T03:53:40.606Z,5.20
2022-07-28T03:56:22.414Z,4.67
2022-07-28T03:59:24.734Z,6.53
2022-07-28T04:02:06.687Z,7.97
2022-07-28T04:04:48.502Z,5.00
2022-07-28T04:07:30.755Z,12.53
2022-07-28T04:10:32.477Z,5.07
2022-07-28T04:13:14.416Z,8.47
2022-07-28T04:15:56.191Z,6.60
2022-07-28T04:18:38.108Z,7.97
2022-07-28T04:21:41.535Z,8.67
2022-07-28T04:24:23.369Z,9.57
2022-07-28T04:27:05.207Z,8.73
2022-07-28T04:29:47.001Z,9.17
2022-07-28T04:32:49.360Z,8.70
2022-07-28T04:35:31.428Z,10.03
2022-07-28T04:38:14.942Z,11.63
2022-07-28T04:40:57.590Z,9.87
2022-07-28T04:43:59.371Z,7.70
2022-07-28T04:46:41.690Z,8.17
2022-07-28T04:49:23.596Z,6.87
2022-07-28T04:52:08.182Z,5.03
2022-07-28T04:55:10.041Z,5.47
2022-07-28T04:57:51.954Z,10.77
2022-07-28T05:00:34.911Z,8.23
2022-07-28T05:03:16.820Z,10.77
2022-07-28T05:06:18.699Z,6.77
2022-07-28T05:09:01.561Z,7.80
2022-07-28T05:11:43.417Z,5.50
2022-07-28T05:14:25.615Z,10.47
2022-07-28T05:17:27.670Z,4.53
2022-07-28T05:20:10.157Z,8.73
2022-07-28T05:22:53.609Z,7.87
2022-07-28T05:25:37.207Z,6.83
2022-07-28T05:28:38.915Z,6.90
2022-07-28T05:31:21.016Z,8.13
2022-07-28T05:34:03.065Z,6.53
2022-07-28T05:36:44.966Z,4.83
2022-07-28T05:39:46.670Z,4.63
2022-07-28T05:42:29.694Z,6.20
2022-07-28T05:45:16.285Z,9.47
2022-07-28T05:47:59.572Z,6.17
2022-07-28T05:51:01.334Z,5.57
2022-07-28T05:53:43.150Z,6.43
2022-07-28T05:56:24.928Z,4.07
2022-07-28T05:59:10.151Z,5.87
2022-07-28T06:02:11.968Z,6.93
2022-07-28T06:04:53.860Z,5.30
2022-07-28T06:07:43.076Z,8.33
2022-07-28T06:10:27.641Z,4.37
2022-07-28T06:13:29.799Z,6.63
2022-07-28T06:16:13.406Z,7.73
2022-07-28T06:18:55.304Z,5.10
2022-07-28T06:21:37.188Z,8.67
2022-07-28T06:24:38.925Z,5.00
2022-07-28T06:27:20.730Z,4.27
2022-07-28T06:30:02.619Z,6.67
2022-07-28T06:32:45.960Z,6.10
2022-07-28T06:35:50.845Z,3.83
2022-07-28T06:38:33.050Z,10.47
2022-07-28T06:41:15.131Z,3.77
2022-07-28T06:43:42.307Z,5.17
2022-07-28T06:46:09.194Z,5.57
2022-07-28T06:48:39.488Z,4.27
2022-07-28T06:51:07.003Z,6.37
2022-07-28T06:53:34.570Z,5.47
2022-07-28T06:56:03.612Z,4.67
2022-07-28T06:58:31.155Z,4.67
2022-07-28T07:00:58.155Z,3.37
2022-07-28T07:03:25.191Z,4.80
2022-07-28T07:05:53.091Z,6.20
2022-07-28T07:08:20.862Z,8.77
2022-07-28T07:10:47.927Z,5.23
2022-07-28T07:13:15.338Z,6.47
2022-07-28T07:15:42.404Z,6.43
2022-07-28T07:18:09.361Z,5.43
2022-07-28T07:20:36.467Z,4.97
2022-07-28T07:23:03.495Z,7.10
2022-07-28T07:25:30.479Z,4.50
2022-07-28T07:27:57.802Z,5.33
2022-07-28T07:30:24.746Z,5.63
2022-07-28T07:32:51.761Z,3.80
2022-07-28T07:35:19.310Z,2.70
2022-07-28T07:37:46.253Z,4.37
2022-07-28T07:40:13.317Z,7.67
2022-07-28T07:42:40.438Z,5.97
2022-07-28T07:45:07.773Z,9.10
2022-07-28T07:47:34.731Z,3.57
2022-07-28T07:50:04.414Z,3.00
2022-07-28T07:52:32.207Z,5.73
2022-07-28T07:54:59.190Z,4.50
2022-07-28T07:57:26.467Z,4.43
2022-07-28T07:59:53.428Z,4.63
2022-07-28T08:02:20.666Z,8.27
2022-07-28T08:04:47.902Z,3.97
2022-07-28T08:07:15.425Z,3.60
2022-07-28T08:09:43.276Z,11.87
2022-07-28T08:12:10.413Z,3.07
2022-07-28T08:14:37.373Z,7.67
2022-07-28T08:17:04.270Z,8.27
2022-07-28T08:19:31.392Z,5.05
2022-07-28T08:21:58.314Z,6.10
2022-07-28T08:24:32.998Z,3.55
2022-07-28T08:27:02.764Z,5.18
2022-07-28T08:29:29.941Z,4.70
2022-07-28T08:31:57.460Z,6.15
2022-07-28T08:34:31.407Z,2.00
2022-07-28T08:37:02.093Z,2.13
2022-07-28T08:39:30.872Z,7.80
2022-07-28T08:42:25.371Z,5.18
2022-07-28T08:45:05.168Z,2.70
2022-07-28T08:47:45.951Z,6.65
2022-07-28T08:50:24.498Z,7.63
2022-07-28T08:52:53.017Z,7.35
2022-07-28T08:55:31.872Z,4.13
2022-07-28T08:58:00.391Z,4.93
2022-07-28T09:00:27.865Z,4.90
2022-07-28T09:02:55.342Z,6.38
2022-07-28T09:05:23.863Z,4.07
2022-07-28T09:07:54.875Z,2.38
2022-07-28T09:10:22.815Z,2.03
2022-07-28T09:12:50.035Z,3.83
2022-07-28T09:15:16.985Z,6.63
2022-07-28T09:17:43.974Z,6.32
2022-07-28T09:20:12.220Z,6.45
2022-07-28T09:22:54.935Z,5.70
2022-07-28T09:25:22.480Z,4.68
2022-07-28T09:27:49.442Z,6.45
2022-07-28T09:30:16.396Z,6.07
2022-07-28T09:32:43.498Z,2.20
2022-07-28T09:35:20.256Z,4.90
2022-07-28T09:37:59.635Z,4.72
2022-07-28T09:40:26.702Z,4.75
2022-07-28T09:42:57.279Z,5.57
2022-07-28T09:45:28.398Z,5.47
2022-07-28T09:48:12.603Z,6.38
2022-07-28T09:50:43.324Z,4.22
2022-07-28T09:53:28.519Z,5.82
2022-07-28T09:55:56.890Z,3.93
2022-07-28T09:58:24.201Z,7.67
2022-07-28T10:01:13.046Z,4.78
2022-07-28T10:03:41.767Z,5.20
2022-07-28T10:06:14.982Z,2.20
2022-07-28T10:08:48.389Z,2.92
2022-07-28T10:11:24.717Z,3.85
2022-07-28T10:14:06.126Z,7.97
2022-07-28T10:16:44.394Z,6.72
2022-07-28T10:19:11.531Z,4.50
2022-07-28T10:21:49.290Z,5.78
2022-07-28T10:24:23.447Z,4.43
2022-07-28T10:26:52.626Z,3.22
2022-07-28T10:29:22.201Z,5.28
2022-07-28T10:31:54.525Z,3.30
2022-07-28T10:34:34.996Z,4.03
2022-07-28T10:37:04.706Z,1.93
2022-07-28T10:39:40.998Z,3.08
2022-07-28T10:42:11.331Z,6.88
2022-07-28T10:44:39.510Z,2.92
2022-07-28T10:47:10.149Z,3.33
2022-07-28T10:49:48.736Z,7.03
2022-07-28T10:52:37.649Z,4.88
2022-07-28T10:55:32.039Z,3.70
2022-07-28T10:58:29.009Z,3.08
2022-07-28T11:00:59.967Z,4.60
2022-07-28T11:03:44.063Z,3.95
2022-07-28T11:06:24.514Z,6.28
2022-07-28T11:08:55.694Z,6.30
2022-07-28T11:11:51.878Z,3.25
2022-07-28T11:14:25.712Z,3.15
2022-07-28T11:17:14.336Z,4.28
2022-07-28T11:20:16.326Z,3.50
2022-07-28T11:22:33.977Z,2.35
2022-07-28T11:25:18.618Z,2.40
2022-07-28T11:27:52.104Z,3.20
2022-07-28T11:30:21.154Z,3.13
2022-07-28T11:32:50.923Z,1.63
2022-07-28T11:35:19.711Z,6.53
2022-07-28T11:38:01.869Z,4.75
2022-07-28T11:40:30.707Z,6.68
2022-07-28T11:43:37.949Z,3.20
2022-07-28T11:46:09.997Z,2.08
2022-07-28T11:48:40.077Z,2.90
2022-07-28T11:51:07.351Z,3.25
2022-07-28T11:53:49.649Z,4.22
2022-07-28T11:56:24.037Z,5.82
2022-07-28T11:59:07.750Z,3.13
2022-07-28T12:01:36.959Z,3.80
2022-07-28T12:04:11.855Z,2.35
2022-07-28T12:06:42.631Z,2.85
2022-07-28T12:09:11.373Z,2.42
2022-07-28T12:11:42.416Z,2.20
2022-07-28T12:14:16.379Z,5.18
2022-07-28T12:16:45.925Z,2.92
2022-07-28T12:19:17.041Z,1.55
2022-07-28T12:21:47.504Z,1.92
2022-07-28T12:24:26.659Z,4.97
2022-07-28T12:26:53.694Z,2.53
2022-07-28T12:29:21.477Z,3.30
2022-07-28T12:31:56.774Z,3.97
2022-07-28T12:34:24.219Z,2.20
2022-07-28T12:36:58.958Z,1.63
2022-07-28T12:39:26.407Z,4.72
2022-07-28T12:42:04.580Z,1.40
2022-07-28T12:44:41.851Z,2.47
2022-07-28T12:47:12.174Z,2.63
2022-07-28T12:49:43.000Z,2.55
2022-07-28T12:52:22.079Z,1.25
2022-07-28T12:54:54.581Z,1.70
2022-07-28T12:57:50.825Z,2.28
2022-07-28T13:00:31.505Z,1.63
2022-07-28T13:03:01.238Z,1.55
2022-07-28T13:05:31.144Z,4.57
2022-07-28T13:08:06.041Z,5.80
2022-07-28T13:10:33.503Z,3.03
2022-07-28T13:13:04.291Z,2.42
2022-07-28T13:15:32.363Z,2.65
2022-07-28T13:18:00.245Z,3.58
2022-07-28T13:20:27.399Z,4.60
2022-07-28T13:22:55.091Z,2.90
2022-07-28T13:25:22.277Z,3.60
2022-07-28T13:27:55.063Z,3.00
2022-07-28T13:30:23.584Z,2.25
2022-07-28T13:32:51.149Z,5.82
2022-07-28T13:35:19.196Z,0.88
2022-07-28T13:37:48.862Z,2.92
2022-07-28T13:40:15.999Z,7.32
2022-07-28T13:42:53.347Z,3.38
2022-07-28T13:45:24.599Z,1.60
2022-07-28T13:47:52.386Z,9.02
2022-07-28T13:50:20.654Z,4.13
2022-07-28T13:52:48.612Z,4.43
2022-07-28T13:55:16.024Z,4.13
2022-07-28T13:57:46.620Z,1.75
2022-07-28T14:00:18.554Z,3.92
2022-07-28T14:02:49.169Z,1.67
2022-07-28T14:05:16.801Z,2.60
2022-07-28T14:07:48.271Z,2.05
2022-07-28T14:10:18.187Z,2.58
2022-07-28T14:12:46.259Z,2.22
2022-07-28T14:15:14.181Z,1.23
2022-07-28T14:17:44.868Z,4.88
2022-07-28T14:20:16.245Z,2.22
2022-07-28T14:22:43.971Z,4.45
2022-07-28T14:25:11.934Z,6.18
2022-07-28T14:27:46.750Z,4.45
2022-07-28T14:30:13.826Z,4.43
2022-07-28T14:32:40.949Z,4.03
2022-07-28T14:35:08.818Z,3.75
2022-07-28T14:38:04.857Z,3.25
2022-07-28T14:40:23.781Z,2.92
2022-07-28T14:42:50.747Z,4.18
2022-07-28T14:45:17.680Z,4.18
2022-07-28T14:47:45.596Z,3.55
2022-07-28T14:50:13.225Z,3.38
2022-07-28T14:52:40.607Z,4.75
2022-07-28T14:55:12.572Z,2.97
2022-07-28T14:57:48.033Z,2.28
2022-07-28T15:00:22.937Z,4.60
2022-07-28T15:02:51.705Z,2.67
2022-07-28T15:05:19.995Z,4.50
2022-07-28T15:07:49.392Z,2.30
2022-07-28T15:10:16.727Z,7.43
2022-07-28T15:12:44.712Z,3.63
2022-07-28T15:15:13.107Z,1.83
2022-07-28T15:17:40.236Z,7.05
2022-07-28T15:20:08.123Z,7.40
2022-07-28T15:22:35.273Z,7.43
2022-07-28T15:25:02.310Z,1.63
2022-07-28T15:27:33.139Z,2.10
2022-07-28T15:30:02.969Z,2.80
2022-07-28T15:32:31.099Z,7.05
2022-07-28T15:35:02.951Z,9.10
2022-07-28T15:37:30.028Z,3.20
2022-07-28T15:39:56.950Z,2.55
2022-07-28T15:42:23.880Z,1.60
2022-07-28T15:44:52.646Z,7.60
2022-07-28T15:47:19.900Z,2.67
2022-07-28T15:49:46.843Z,3.60
2022-07-28T15:52:14.595Z,5.40
2022-07-28T15:54:42.093Z,2.50
2022-07-28T15:57:09.191Z,3.85
2022-07-28T15:59:48.750Z,2.95
2022-07-28T16:02:18.037Z,4.13
2022-07-28T16:04:51.538Z,3.55
2022-07-28T16:07:28.183Z,1.77
2022-07-28T16:09:56.091Z,2.80
2022-07-28T16:12:25.422Z,2.25
2022-07-28T16:14:54.032Z,5.50
2022-07-28T16:17:24.750Z,3.30
2022-07-28T16:19:53.858Z,4.10
2022-07-28T16:22:21.331Z,2.92
2022-07-28T16:24:49.269Z,4.00
2022-07-28T16:27:16.573Z,3.72
2022-07-28T16:29:44.813Z,6.30
2022-07-28T16:32:11.998Z,2.63
2022-07-28T16:34:39.296Z,3.70
2022-07-28T16:37:06.515Z,3.13
2022-07-28T16:39:34.554Z,4.22
2022-07-28T16:42:02.762Z,6.20
2022-07-28T16:44:29.967Z,3.05
2022-07-28T16:46:57.318Z,3.25
2022-07-28T16:49:25.004Z,1.70
2022-07-28T16:51:51.974Z,1.83
2022-07-28T16:54:19.641Z,2.80
2022-07-28T16:56:47.355Z,3.70
2022-07-28T16:59:14.262Z,3.10
2022-07-28T17:01:45.819Z,7.13
2022-07-28T17:04:15.266Z,6.27
2022-07-28T17:06:42.812Z,6.13
2022-07-28T17:09:10.011Z,2.77
2022-07-28T17:11:37.070Z,3.13
2022-07-28T17:14:04.684Z,1.40
2022-07-28T17:16:31.866Z,4.03
2022-07-28T17:18:59.282Z,3.87
2022-07-28T17:21:27.091Z,3.47
2022-07-28T17:23:54.299Z,4.27
2022-07-28T17:29:09.765Z,3.03
2022-07-28T17:31:38.425Z,2.30
2022-07-28T17:34:05.576Z,5.73
2022-07-28T17:36:35.332Z,2.90
2022-07-28T17:39:02.630Z,3.73
2022-07-28T17:41:30.551Z,2.93
2022-07-28T17:43:57.662Z,1.97
2022-07-28T17:46:26.735Z,3.37
2022-07-28T17:48:53.963Z,4.63
2022-07-28T17:51:21.393Z,2.60
2022-07-28T17:53:48.870Z,3.33
2022-07-28T17:56:17.207Z,2.83
2022-07-28T17:58:45.798Z,4.90
2022-07-28T18:01:13.983Z,5.03
2022-07-28T18:03:58.904Z,4.00
2022-07-28T18:06:35.855Z,2.50
2022-07-28T18:09:07.033Z,7.17
2022-07-28T18:11:56.443Z,5.63
2022-07-28T18:14:29.592Z,4.07
2022-07-28T18:16:57.604Z,4.30
2022-07-28T18:19:25.351Z,8.40
2022-07-28T18:21:52.578Z,4.77
2022-07-28T18:24:22.115Z,6.40
2022-07-28T18:26:53.148Z,4.93
2022-07-28T18:29:21.416Z,6.90
2022-07-28T18:31:52.656Z,4.80
2022-07-28T18:34:20.847Z,9.57
2022-07-28T18:36:50.993Z,4.03
2022-07-28T18:39:17.959Z,7.00
2022-07-28T18:41:47.301Z,4.70
2022-07-28T18:44:17.148Z,6.07
2022-07-28T18:46:44.727Z,3.80
2022-07-28T18:49:12.087Z,8.17
2022-07-28T18:51:39.290Z,8.40
2022-07-28T18:54:11.249Z,8.80
2022-07-28T18:56:38.275Z,6.77
2022-07-28T18:59:05.366Z,9.03
2022-07-28T19:01:32.321Z,9.97
2022-07-28T19:03:59.269Z,7.43
2022-07-28T19:06:26.369Z,12.83
2022-07-28T19:08:53.374Z,7.40
2022-07-28T19:11:20.365Z,5.50
2022-07-28T19:13:48.135Z,6.77
2022-07-28T19:16:15.220Z,7.73
2022-07-28T19:18:42.236Z,5.07
2022-07-28T19:21:09.449Z,10.43
2022-07-28T19:23:36.384Z,9.83
2022-07-28T19:26:03.845Z,9.10
2022-07-28T19:28:31.018Z,7.47
2022-07-28T19:30:59.896Z,12.37
2022-07-28T19:33:37.179Z,9.17
2022-07-28T19:36:10.804Z,10.13
2022-07-28T19:38:37.858Z,11.83
2022-07-28T19:41:05.016Z,13.60
2022-07-28T19:43:32.113Z,9.27
2022-07-28T19:46:00.146Z,10.73
2022-07-28T19:48:27.595Z,12.13
2022-07-28T19:50:56.939Z,7.37
2022-07-28T19:53:30.955Z,5.57
2022-07-28T19:55:59.388Z,5.70
2022-07-28T19:58:26.309Z,10.70
2022-07-28T20:00:53.734Z,10.73
2022-07-28T20:04:03.385Z,8.83
2022-07-28T20:06:11.430Z,6.80
2022-07-28T20:08:38.950Z,10.63
2022-07-28T20:11:06.538Z,6.50
2022-07-28T20:13:33.571Z,11.13
2022-07-28T20:16:00.767Z,11.00
2022-07-28T20:18:27.731Z,11.97
2022-07-28T20:20:54.685Z,11.70
2022-07-28T20:23:22.196Z,9.13
2022-07-28T20:25:49.113Z,9.10
2022-07-28T20:28:16.114Z,10.03
2022-07-28T20:30:43.402Z,9.60
2022-07-28T20:33:10.342Z,6.67
2022-07-28T20:35:37.246Z,9.73
2022-07-28T20:38:05.993Z,10.23
2022-07-28T20:40:33.024Z,9.57
2022-07-28T20:42:59.941Z,11.93
2022-07-28T20:45:27.095Z,10.70
2022-07-28T20:47:53.988Z,12.47
2022-07-28T20:50:21.600Z,13.70
2022-07-28T20:52:48.788Z,7.33
2022-07-28T20:55:15.705Z,8.40
2022-07-28T20:57:42.657Z,10.70
2022-07-28T21:00:21.205Z,9.80
2022-07-28T21:02:48.262Z,7.23
2022-07-28T21:05:23.921Z,7.17
2022-07-28T21:08:06.409Z,6.50
2022-07-28T21:10:36.397Z,9.17
2022-07-28T21:13:03.537Z,9.33
2022-07-28T21:15:30.682Z,10.27
2022-07-28T21:17:57.735Z,8.50
2022-07-28T21:20:25.292Z,11.70
2022-07-28T21:22:52.545Z,12.07
2022-07-28T21:25:19.718Z,12.97
2022-07-28T21:28:05.460Z,10.13
2022-07-28T21:30:32.490Z,8.00
2022-07-28T21:32:59.640Z,8.47
2022-07-28T21:35:26.949Z,8.03
2022-07-28T21:37:54.006Z,6.40
2022-07-28T21:40:21.274Z,9.17
2022-07-28T21:42:48.241Z,9.43
2022-07-28T21:45:15.348Z,9.00
2022-07-28T21:47:42.675Z,9.57
2022-07-28T21:50:10.286Z,9.37
2022-07-28T21:52:37.953Z,12.17
2022-07-28T21:55:08.085Z,8.27
2022-07-28T21:57:35.327Z,13.23
2022-07-28T22:00:04.299Z,10.73
2022-07-28T22:02:31.428Z,11.77
2022-07-28T22:04:59.847Z,13.30
2022-07-28T22:07:26.910Z,13.00
2022-07-28T22:09:54.020Z,9.43
2022-07-28T22:12:21.302Z,9.17
2022-07-28T22:14:48.217Z,12.40
2022-07-28T22:17:15.319Z,11.57
2022-07-28T22:19:42.270Z,14.83
2022-07-28T22:22:09.175Z,13.37
2022-07-28T22:24:36.309Z,7.97
2022-07-28T22:27:03.275Z,8.07
2022-07-28T22:29:30.959Z,14.07
2022-07-28T22:31:59.495Z,10.80
2022-07-28T22:34:27.918Z,10.63
2022-07-28T22:36:54.922Z,11.30
2022-07-28T22:39:22.298Z,11.60
2022-07-28T22:41:49.278Z,13.00
2022-07-28T22:44:16.702Z,10.17
2022-07-28T22:46:44.181Z,9.97
2022-07-28T22:49:11.244Z,11.47
2022-07-28T22:51:38.258Z,10.50
2022-07-28T22:54:05.415Z,7.57
2022-07-28T22:56:37.586Z,9.93
2022-07-28T22:59:05.209Z,12.07
2022-07-28T23:01:32.451Z,8.07
2022-07-28T23:04:00.649Z,9.67
2022-07-28T23:06:27.939Z,10.10
2022-07-28T23:08:55.186Z,12.57
2022-07-28T23:11:22.129Z,6.97
2022-07-28T23:13:49.062Z,10.63
2022-07-28T23:16:17.129Z,7.53
2022-07-28T23:18:44.867Z,9.93
2022-07-28T23:21:12.284Z,10.73
2022-07-28T23:23:39.415Z,10.27
2022-07-28T23:26:06.442Z,10.57
2022-07-28T23:28:33.439Z,8.77
2022-07-28T23:31:00.680Z,8.27
2022-07-28T23:33:55.650Z,14.37
2022-07-28T23:36:25.957Z,10.93
2022-07-28T23:38:57.859Z,8.27
2022-07-28T23:41:26.036Z,8.07
2022-07-28T23:43:53.530Z,10.17
2022-07-28T23:46:21.133Z,9.83
2022-07-28T23:48:49.550Z,8.93
2022-07-28T23:51:16.602Z,10.47
2022-07-28T23:53:43.659Z,8.40
2022-07-28T23:56:10.777Z,8.03
2022-07-28T23:58:37.669Z,16.73
